createdAt,value
2019-04-23T00:00:13.937Z,11.41
2019-04-23T00:02:48.850Z,11.39
2019-04-23T00:05:31.310Z,11.35
2019-04-23T00:07:56.148Z,11.35
2019-04-23T00:10:30.365Z,11.31
2019-04-23T00:12:59.354Z,11.29
2019-04-23T00:15:45.432Z,11.24
2019-04-23T00:18:12.309Z,11.24
2019-04-23T00:20:49.454Z,11.21
2019-04-23T00:23:18.986Z,11.16
2019-04-23T00:25:57.265Z,11.12
2019-04-23T00:28:30.157Z,11.07
2019-04-23T00:33:30.261Z,11.03
2019-04-23T00:36:05.257Z,10.98
2019-04-23T00:38:38.930Z,10.95
2019-04-23T00:41:09.425Z,10.92
2019-04-23T00:43:48.652Z,10.90
2019-04-23T00:46:24.888Z,10.85
2019-04-23T00:48:57.766Z,10.83
2019-04-23T00:51:27.144Z,10.83
2019-04-23T00:54:00.204Z,10.77
2019-04-23T00:56:41.681Z,10.73
2019-04-23T00:59:08.353Z,10.70
2019-04-23T01:01:47.767Z,10.65
2019-04-23T01:04:11.835Z,10.63
2019-04-23T01:06:46.066Z,10.60
2019-04-23T01:09:14.245Z,10.59
2019-04-23T01:11:48.141Z,10.54
2019-04-23T01:14:20.293Z,10.51
2019-04-23T01:16:48.428Z,10.50
2019-04-23T01:21:45.435Z,10.45
2019-04-23T01:24:20.275Z,10.43
2019-04-23T01:27:35.883Z,10.41
2019-04-23T01:29:50.613Z,10.37
2019-04-23T01:32:26.826Z,10.33
2019-04-23T01:35:09.675Z,10.30
2019-04-23T01:37:35.222Z,10.29
2019-04-23T01:40:07.717Z,10.31
2019-04-23T01:42:40.572Z,10.30
2019-04-23T01:45:26.056Z,10.29
2019-04-23T01:50:20.542Z,10.27
2019-04-23T01:52:55.136Z,10.24
2019-04-23T01:55:33.075Z,10.20
2019-04-23T02:00:34.093Z,10.17
2019-04-23T02:03:12.952Z,10.11
2019-04-23T02:05:43.275Z,10.08
2019-04-23T02:08:12.885Z,10.10
2019-04-23T02:11:02.824Z,10.07
2019-04-23T02:13:28.575Z,10.04
2019-04-23T02:15:54.012Z,10.04
2019-04-23T02:18:33.876Z,9.98
2019-04-23T02:21:03.538Z,9.98
2019-04-23T02:23:38.893Z,10.00
2019-04-23T02:26:10.651Z,9.93
2019-04-23T02:28:47.480Z,9.88
2019-04-23T02:31:43.741Z,9.88
2019-04-23T02:36:24.575Z,9.84
2019-04-23T02:38:57.958Z,9.81
2019-04-23T02:41:35.130Z,9.80
2019-04-23T02:46:40.951Z,9.68
2019-04-23T02:49:17.733Z,9.71
2019-04-23T02:52:10.547Z,9.65
2019-04-23T02:54:48.333Z,9.56
2019-04-23T02:57:09.349Z,9.54
2019-04-23T03:02:19.350Z,9.53
2019-04-23T03:07:13.972Z,9.51
2019-04-23T03:09:45.228Z,9.42
2019-04-23T03:14:52.886Z,9.38
2019-04-23T03:17:15.140Z,9.35
2019-04-23T03:22:42.178Z,9.33
2019-04-23T03:25:12.600Z,9.29
2019-04-23T03:30:30.065Z,9.21
2019-04-23T03:35:15.983Z,9.11
2019-04-23T03:40:43.093Z,9.10
2019-04-23T03:43:12.297Z,9.09
2019-04-23T03:45:55.823Z,9.10
2019-04-23T03:48:17.904Z,9.00
2019-04-23T03:50:44.036Z,9.02
2019-04-23T03:56:12.538Z,9.00
2019-04-23T04:01:07.569Z,9.01
2019-04-23T04:06:14.226Z,8.99
2019-04-23T04:11:14.543Z,8.98
2019-04-23T04:14:10.229Z,8.97
2019-04-23T04:19:09.253Z,8.96
2019-04-23T04:26:46.834Z,9.00
2019-04-23T04:36:58.434Z,9.11
2019-04-23T04:39:26.647Z,9.13
2019-04-23T04:49:41.429Z,9.26
2019-04-23T04:54:24.722Z,9.38
2019-04-23T04:57:24.165Z,9.42
2019-04-23T04:59:53.982Z,9.53
2019-04-23T05:05:01.511Z,9.63
2019-04-23T05:10:09.313Z,9.74
2019-04-23T05:15:04.633Z,9.84
2019-04-23T05:17:55.242Z,9.87
2019-04-23T05:20:16.975Z,9.92
2019-04-23T05:22:52.649Z,9.98
2019-04-23T05:25:11.001Z,9.99
2019-04-23T05:28:02.798Z,10.08
2019-04-23T05:30:25.128Z,10.13
2019-04-23T05:33:02.620Z,10.18
2019-04-23T05:35:59.189Z,10.27
2019-04-23T05:40:45.347Z,10.47
2019-04-23T05:43:08.182Z,10.55
2019-04-23T05:45:40.203Z,10.63
2019-04-23T05:48:19.399Z,10.65
2019-04-23T05:51:00.840Z,10.78
2019-04-23T06:01:21.570Z,11.12
2019-04-23T06:03:38.673Z,11.18
2019-04-23T06:06:21.184Z,11.25
2019-04-23T06:08:56.382Z,11.29
2019-04-23T06:11:28.449Z,11.39
2019-04-23T06:16:36.391Z,11.46
2019-04-23T06:19:07.430Z,11.52
2019-04-23T06:21:44.736Z,11.59
2019-04-23T06:24:18.342Z,11.75
2019-04-23T06:26:45.498Z,11.83
2019-04-23T06:37:02.198Z,12.03
2019-04-23T06:39:36.639Z,12.13
2019-04-23T06:42:20.859Z,12.19
2019-04-23T06:44:43.069Z,12.27
2019-04-23T06:47:16.699Z,12.46
2019-04-23T06:49:52.312Z,12.63
2019-04-23T06:52:24.873Z,12.69
2019-04-23T06:55:06.412Z,12.67
2019-04-23T06:57:42.620Z,12.72
2019-04-23T07:00:02.440Z,12.79
2019-04-23T07:02:42.048Z,13.01
2019-04-23T07:05:15.873Z,13.22
2019-04-23T07:07:54.813Z,13.34
2019-04-23T07:10:18.440Z,13.45
2019-04-23T07:12:50.449Z,13.43
2019-04-23T07:15:33.249Z,13.51
2019-04-23T07:18:00.674Z,13.57
2019-04-23T07:20:33.514Z,13.69
2019-04-23T07:25:38.955Z,13.59
2019-04-23T07:28:19.449Z,13.71
2019-04-23T07:30:49.623Z,13.83
2019-04-23T07:33:20.858Z,13.86
2019-04-23T07:35:51.681Z,13.80
2019-04-23T07:38:44.249Z,13.87
2019-04-23T07:41:09.725Z,14.09
2019-04-23T07:43:37.672Z,14.04
2019-04-23T07:46:20.192Z,14.34
2019-04-23T07:48:41.879Z,14.46
2019-04-23T07:51:20.921Z,14.53
2019-04-23T07:54:16.035Z,14.50
2019-04-23T07:57:15.319Z,14.64
2019-04-23T07:59:43.067Z,14.80
2019-04-23T08:02:19.402Z,15.03
2019-04-23T08:05:00.849Z,15.02
2019-04-23T08:07:28.195Z,14.98
2019-04-23T08:10:02.010Z,15.14
2019-04-23T08:15:07.482Z,15.38
2019-04-23T08:17:34.577Z,15.52
2019-04-23T08:20:19.411Z,15.55
2019-04-23T08:22:45.753Z,15.71
2019-04-23T08:25:29.967Z,15.84
2019-04-23T08:28:01.698Z,15.82
2019-04-23T08:30:33.455Z,15.83
2019-04-23T08:33:13.942Z,15.89
2019-04-23T08:35:42.944Z,15.97
2019-04-23T08:38:24.616Z,16.09
2019-04-23T08:40:57.188Z,16.16
2019-04-23T08:43:36.060Z,16.28
2019-04-23T08:46:01.923Z,16.06
2019-04-23T08:48:34.190Z,16.14
2019-04-23T08:51:21.051Z,16.47
2019-04-23T08:53:40.851Z,16.59
2019-04-23T08:56:24.092Z,16.54
2019-04-23T08:59:11.007Z,16.55
2019-04-23T09:01:52.469Z,16.76
2019-04-23T09:03:56.111Z,16.83
2019-04-23T09:06:47.209Z,17.03
2019-04-23T09:09:06.935Z,17.09
2019-04-23T09:11:50.900Z,16.94
2019-04-23T09:14:05.181Z,17.16
2019-04-23T09:16:52.828Z,17.34
2019-04-23T09:19:24.006Z,17.32
2019-04-23T09:22:05.951Z,17.15
2019-04-23T09:24:38.264Z,17.13
2019-04-23T09:27:11.749Z,17.15
2019-04-23T09:29:46.024Z,17.41
2019-04-23T10:13:26.213Z,17.80
2019-04-23T10:15:58.145Z,17.77
2019-04-23T10:18:30.919Z,17.85
2019-04-23T10:21:03.383Z,18.01
2019-04-23T10:23:34.406Z,17.82
2019-04-23T10:26:06.158Z,18.11
2019-04-23T10:28:40.219Z,18.43
2019-04-23T10:31:12.700Z,18.49
2019-04-23T10:33:44.024Z,18.43
2019-04-23T10:36:19.460Z,18.71
2019-04-23T10:38:55.991Z,18.72
2019-04-23T10:41:22.334Z,18.77
2019-04-23T10:43:56.677Z,18.88
2019-04-23T10:46:53.669Z,18.91
2019-04-23T10:49:51.045Z,19.30
2019-04-23T10:52:20.515Z,19.23
2019-04-23T10:57:14.821Z,19.33
2019-04-23T11:09:57.066Z,19.27
2019-04-23T11:12:37.041Z,19.55
2019-04-23T11:20:27.429Z,19.69
2019-04-23T11:22:45.109Z,19.54
2019-04-23T11:25:29.987Z,19.12
2019-04-23T11:27:48.953Z,18.79
2019-04-23T11:30:39.032Z,19.12
2019-04-23T11:35:39.544Z,19.38
2019-04-23T11:38:22.057Z,19.51
2019-04-23T11:40:33.914Z,19.74
2019-04-23T11:45:50.214Z,20.25
2019-04-23T11:53:36.038Z,19.96
2019-04-23T11:56:18.936Z,19.97
2019-04-23T12:01:23.651Z,19.64
2019-04-23T12:04:00.653Z,19.95
2019-04-23T12:08:51.060Z,19.80
2019-04-23T12:11:52.345Z,19.95
2019-04-23T12:14:03.615Z,20.18
2019-04-23T12:16:45.034Z,19.98
2019-04-23T12:19:23.324Z,20.21
2019-04-23T12:21:45.414Z,20.35
2019-04-23T12:24:16.260Z,20.14
2019-04-23T12:26:53.897Z,20.04
2019-04-23T12:29:21.086Z,20.08
2019-04-23T12:31:56.678Z,20.17
2019-04-23T12:34:25.083Z,20.37
2019-04-23T12:36:50.963Z,20.10
2019-04-23T12:39:32.986Z,20.04
2019-04-23T12:42:21.729Z,19.95
2019-04-23T12:44:38.729Z,19.93
2019-04-23T12:47:18.843Z,20.06
2019-04-23T12:52:14.302Z,19.85
2019-04-23T12:54:59.855Z,19.63
2019-04-23T12:57:18.672Z,19.48
2019-04-23T13:02:25.854Z,19.66
2019-04-23T13:04:52.425Z,19.66
2019-04-23T13:07:33.516Z,19.78
2019-04-23T13:09:58.586Z,19.63
2019-04-23T13:12:50.309Z,19.70
2019-04-23T13:17:44.499Z,19.62
2019-04-23T13:20:15.244Z,19.57
2019-04-23T13:25:18.183Z,19.27
2019-04-23T13:28:02.931Z,19.21
2019-04-23T13:30:34.048Z,19.12
2019-04-23T13:33:02.685Z,19.11
2019-04-23T13:35:40.731Z,19.31
2019-04-23T13:38:01.450Z,19.47
2019-04-23T13:40:33.767Z,19.54
2019-04-23T13:43:06.967Z,19.65
2019-04-23T13:45:56.357Z,19.73
2019-04-23T13:48:07.979Z,19.65
2019-04-23T13:53:20.979Z,19.29
2019-04-23T13:55:37.984Z,19.30
2019-04-23T14:00:58.175Z,19.30
2019-04-23T14:03:31.555Z,19.30
2019-04-23T14:05:59.526Z,19.41
2019-04-23T14:08:41.605Z,19.44
2019-04-23T14:10:55.433Z,19.52
2019-04-23T14:13:43.974Z,19.67
2019-04-23T14:16:03.616Z,19.78
2019-04-23T14:21:14.163Z,19.52
2019-04-23T14:23:52.481Z,19.69
2019-04-23T14:26:29.675Z,19.73
2019-04-23T14:29:19.109Z,19.74
2019-04-23T14:31:28.328Z,19.89
2019-04-23T14:39:06.440Z,20.30
2019-04-23T14:41:52.507Z,20.32
2019-04-23T14:47:05.032Z,20.21
2019-04-23T14:49:25.778Z,19.94
2019-04-23T14:52:00.221Z,19.92
2019-04-23T14:55:01.371Z,20.08
2019-04-23T14:57:11.241Z,20.02
2019-04-23T14:59:41.175Z,19.94
2019-04-23T15:02:14.552Z,19.74
2019-04-23T15:07:22.972Z,19.82
2019-04-23T15:12:30.695Z,19.78
2019-04-23T15:15:06.413Z,19.65
2019-04-23T15:17:36.203Z,19.49
2019-04-23T15:20:11.621Z,19.31
2019-04-23T15:30:24.840Z,19.08
2019-04-23T15:33:11.801Z,19.10
2019-04-23T15:38:34.039Z,19.00
2019-04-23T15:41:07.372Z,18.99
2019-04-23T15:43:41.176Z,18.96
2019-04-23T15:46:21.901Z,18.99
2019-04-23T15:48:53.985Z,18.99
2019-04-23T15:51:28.239Z,19.04
2019-04-23T15:53:53.174Z,19.02
2019-04-23T15:56:38.479Z,19.00
2019-04-23T15:59:12.838Z,19.02
2019-04-23T16:01:34.140Z,19.01
2019-04-23T16:03:41.884Z,19.04
2019-04-23T16:06:16.544Z,18.99
2019-04-23T16:09:06.242Z,19.01
2019-04-23T16:17:04.068Z,18.88
2019-04-23T16:22:06.703Z,18.92
2019-04-23T16:24:56.010Z,18.94
2019-04-23T16:29:55.509Z,18.86
2019-04-23T16:34:54.083Z,18.73
2019-04-23T16:37:29.247Z,18.68
2019-04-23T16:40:03.485Z,18.63
2019-04-23T16:42:29.275Z,18.58
2019-04-23T16:45:11.059Z,18.55
2019-04-23T16:47:43.536Z,18.51
2019-04-23T16:52:51.542Z,18.44
2019-04-23T16:55:24.144Z,18.43
2019-04-23T16:58:06.306Z,18.35
2019-04-23T17:00:30.552Z,18.06
2019-04-23T17:03:12.769Z,17.80
2019-04-23T17:05:39.485Z,17.65
2019-04-23T17:08:36.189Z,17.55
2019-04-23T17:11:00.404Z,17.56
2019-04-23T17:13:34.559Z,17.52
2019-04-23T17:16:15.113Z,17.47
2019-04-23T17:18:41.795Z,17.45
2019-04-23T17:21:18.045Z,17.38
2019-04-23T17:24:15.401Z,17.34
2019-04-23T17:26:26.003Z,17.32
2019-04-23T17:29:08.693Z,17.31
2019-04-23T17:31:35.624Z,17.32
2019-04-23T17:34:18.718Z,17.30
2019-04-23T17:36:40.379Z,17.34
2019-04-23T17:39:21.122Z,17.35
2019-04-23T17:42:06.834Z,17.37
2019-04-23T17:46:56.282Z,17.40
2019-04-23T17:49:36.767Z,17.37
2019-04-23T17:52:05.114Z,17.38
2019-04-23T17:54:41.134Z,17.38
2019-04-23T18:00:04.862Z,17.40
2019-04-23T18:02:49.384Z,17.35
2019-04-23T18:05:09.825Z,17.34
2019-04-23T18:10:25.348Z,17.32
2019-04-23T18:12:57.608Z,17.27
2019-04-23T18:18:00.646Z,17.32
2019-04-23T18:20:34.831Z,17.35
2019-04-23T18:23:06.228Z,17.32
2019-04-23T18:25:43.351Z,17.31
2019-04-23T18:28:08.870Z,17.30
2019-04-23T18:31:03.595Z,17.30
2019-04-23T18:33:54.367Z,17.29
2019-04-23T18:35:54.911Z,17.29
2019-04-23T18:38:39.960Z,17.26
2019-04-23T18:41:33.722Z,17.18
2019-04-23T18:43:51.164Z,17.13
2019-04-23T18:46:32.049Z,17.08
2019-04-23T18:48:54.671Z,17.06
2019-04-23T18:51:33.920Z,17.03
2019-04-23T18:54:01.139Z,16.96
2019-04-23T18:56:53.426Z,16.94
2019-04-23T18:59:09.004Z,16.93
2019-04-23T19:01:48.742Z,16.92
2019-04-23T19:06:44.056Z,16.93
2019-04-23T19:09:38.576Z,16.93
2019-04-23T19:12:25.177Z,16.96
2019-04-23T19:24:45.267Z,16.94
2019-04-23T19:29:59.859Z,16.94
2019-04-23T19:32:24.463Z,16.95
2019-04-23T19:35:16.131Z,16.94
2019-04-23T19:40:24.515Z,16.92
2019-04-23T19:45:29.167Z,16.90
2019-04-23T19:50:43.721Z,16.86
2019-04-23T19:53:22.840Z,16.82
2019-04-23T19:55:57.096Z,16.83
2019-04-23T19:58:34.510Z,16.82
2019-04-23T20:03:37.127Z,16.78
2019-04-23T20:06:14.488Z,16.70
2019-04-23T20:08:53.273Z,16.70
2019-04-23T20:11:08.072Z,16.65
2019-04-23T20:13:50.564Z,16.59
2019-04-23T20:16:26.010Z,16.52
2019-04-23T20:21:23.247Z,16.44
2019-04-23T20:24:04.228Z,16.43
2019-04-23T20:26:41.329Z,16.35
2019-04-23T20:29:19.612Z,16.31
2019-04-23T20:39:26.706Z,16.13
2019-04-23T20:47:24.403Z,16.05
2019-04-23T20:52:32.030Z,16.06
2019-04-23T20:55:01.139Z,16.08
2019-04-23T21:08:00.816Z,16.09
2019-04-23T21:10:33.967Z,16.09
2019-04-23T21:15:42.143Z,16.06
2019-04-23T21:18:15.977Z,15.97
2019-04-23T21:20:41.251Z,15.92
2019-04-23T21:23:21.282Z,15.90
2019-04-23T21:25:47.512Z,15.85
2019-04-23T21:28:38.214Z,15.82
2019-04-23T21:31:27.481Z,15.77
2019-04-23T21:36:13.396Z,15.69
2019-04-23T21:41:17.202Z,15.60
2019-04-23T21:46:47.631Z,15.47
2019-04-23T21:51:45.553Z,15.38
2019-04-23T21:53:58.481Z,15.33
2019-04-23T21:56:42.731Z,15.30
2019-04-23T21:59:06.990Z,15.21
2019-04-23T22:09:34.718Z,15.15
2019-04-23T22:14:40.558Z,15.20
2019-04-23T22:17:25.966Z,15.19
2019-04-23T22:19:55.653Z,15.16
2019-04-23T22:22:17.018Z,15.15
2019-04-23T22:24:53.076Z,15.17
2019-04-23T22:27:16.778Z,15.14
2019-04-23T22:30:01.207Z,15.12
2019-04-23T22:32:34.319Z,15.10
2019-04-23T22:35:05.922Z,15.08
2019-04-23T22:37:32.384Z,15.06
2019-04-23T22:40:04.676Z,15.06
2019-04-23T22:43:12.804Z,15.01
2019-04-23T22:47:47.972Z,14.90
2019-04-23T22:50:11.250Z,14.90
2019-04-23T22:52:54.054Z,14.89
2019-04-23T22:55:40.358Z,14.87
2019-04-23T22:58:05.123Z,14.89
2019-04-23T23:00:49.762Z,14.91
2019-04-23T23:03:06.365Z,14.90
2019-04-23T23:05:53.522Z,14.90
2019-04-23T23:13:20.748Z,14.82
2019-04-23T23:15:53.292Z,14.83
2019-04-23T23:18:28.458Z,14.85
2019-04-23T23:20:59.641Z,14.86
2019-04-23T23:26:14.347Z,14.84
2019-04-23T23:31:22.427Z,14.82
2019-04-23T23:41:25.981Z,14.78
2019-04-23T23:44:23.983Z,14.76
2019-04-23T23:46:37.580Z,14.76
2019-04-23T23:49:08.497Z,14.72
2019-04-23T23:51:39.737Z,14.72
2019-04-23T23:54:21.605Z,14.70
2019-04-23T23:56:49.772Z,14.69
